La Junta, CO (81050)

2:51 PM MST on February 23, 2017 (GMT -0700)
North La Junta 2 Backup | | Change Station
Active Advisory: Fire Weather Warning

Elev 4058 ft 38.00 °N, 103.53 °W | Updated 32 seconds ago

Clear
Clear
52.7 °F
Feels Like 52.7 °F
N
5.8
Wind Variable Wind from NW

Today
High -- | Low -- °F
--% Chance of Precip.
Yesterday
High -- | Low -- °F
Precip. -- in
Pressure 29.41 in
Visibility 10.0 miles
Clouds Clear
Dew Point 25 °F
Humidity 34%
Rainfall 0.00 in
Snow Depth Not available.
6:33 AM 5:41 PM
Waning Crescent, 8% visible
METAR KLHX 232053Z AUTO 31008G21KT 10SM CLR 12/M04 A2947 RMK AO2 PK WND 32031/2013 SLP958 T01171044 53006
Pressure 29.41 in
Visibility 10.0 miles
Clouds Clear
Dew Point 25 °F
Humidity 34%
Rainfall 0.00 in
Snow Depth Not available.
6:33 AM 5:41 PM
Waning Crescent, 8% visible
METAR KLHX 232053Z AUTO 31008G21KT 10SM CLR 12/M04 A2947 RMK AO2 PK WND 32031/2013 SLP958 T01171044 53006

Get Your Daily Forecast Email!

Thanks for signing up!

Be on the lookout for a verification email in your inbox.

You'll start receiving the daily forecast at 8 AM.

×

10-Day Weather Forecast

Almanac

Astronomy

Feb. 23, 2017 Rise Set
Actual Time
Civil Twilight
Nautical Twilight
Astronomical Twilight
Moon
Length of Visible Light
Length of Day
Tomorrow will be .
, % of the Moon is Illuminated

Today's Extremes

State Highs State Lows

Community

WunderPhotos

Upload Photos

1,962,540 photos uploaded!

WunderBlog® & News

Nearby

Air Quality

  Air Quality AQ Index Pollutant
Not available.

Snow Depth

Station Depth Elevation

Earthquake Activity

City Distance Mag. Time & Date
Minimum magnitude displayed is 2.5.

Coastal Water Temperatures

Place Temperature

Stations

Nearby Weather Stations

Station Location Temp. Windchill Dew Point Humidity Wind Precip. Elev Updated Type
                   

Watches & Warnings

Fire Weather Warning
Issued: 1:12 PM MST Feb. 23, 2017 – National Weather Service

... Red flag warning remains in effect until 6 PM MST this evening
for fire weather zones 228... 229...
230... 231... 232... 233... 234... 235... 236 and 237...

* affected area... fire weather zones 228... 229... 230... 231...
232... 233... 234... 235... 236 and 237.

* Winds... west 20 to 30 mph with gusts up to 55 mph. The strongest
winds will occur generally along the New Mexico and Colorado
border.

* Relative humidity... as low as 10 to 15 percent.

* Impacts... conditions will be favorable for the rapid ignition,
growth and spread of fires Thursday morning through the early
evening hours.

Precautionary/preparedness actions...

A red flag warning means that critical fire weather conditions
are either occurring now, or will shortly. A combination of
strong winds, low relative humidity, and warm temperatures can
contribute to extreme fire behavior.



Hodanish